createdAt,value
2018-12-13T04:01:01.777Z,92.47
2018-12-13T04:02:02.638Z,92.66
2018-12-13T04:03:02.523Z,92.85
2018-12-13T04:04:05.530Z,92.29
2018-12-13T04:06:02.556Z,92.76
2018-12-13T04:07:03.157Z,92.85
2018-12-13T04:08:03.183Z,92.76
2018-12-13T04:09:02.976Z,92.94
2018-12-13T04:10:04.481Z,92.29
2018-12-13T04:11:03.610Z,92.38
2018-12-13T04:12:03.154Z,91.72
2018-12-13T04:13:04.609Z,92.94
2018-12-13T04:14:02.677Z,92.00
2018-12-13T04:15:03.264Z,91.81
2018-12-13T04:16:02.025Z,91.91
2018-12-13T04:17:16.592Z,91.53
2018-12-13T04:18:05.327Z,91.24
2018-12-13T04:19:04.530Z,91.05
2018-12-13T04:20:08.261Z,90.77
2018-12-13T04:21:06.239Z,90.77
2018-12-13T04:22:15.963Z,91.05
2018-12-13T04:23:06.647Z,91.05
2018-12-13T04:24:06.602Z,90.96
2018-12-13T04:25:06.251Z,90.77
2018-12-13T04:26:05.603Z,90.96
2018-12-13T04:29:16.163Z,91.34
2018-12-13T04:30:24.917Z,91.24
2018-12-13T04:31:18.489Z,92.19
2018-12-13T04:32:18.652Z,91.43
2018-12-13T04:33:31.263Z,90.67
2018-12-13T04:34:19.746Z,90.86
2018-12-13T04:35:18.270Z,91.15
2018-12-13T04:38:23.986Z,90.96
2018-12-13T04:39:24.414Z,91.24
2018-12-13T04:40:26.227Z,90.96
2018-12-13T04:41:27.848Z,91.34
2018-12-13T04:42:41.495Z,91.15
2018-12-13T04:43:28.218Z,91.05
2018-12-13T04:44:27.021Z,91.34
2018-12-13T04:45:27.360Z,92.19
2018-12-13T04:49:48.328Z,91.34
2018-12-13T04:50:47.724Z,91.24
2018-12-13T04:51:49.832Z,91.15
2018-12-13T04:52:54.398Z,91.81
2018-12-13T04:53:50.199Z,91.15
2018-12-13T04:54:49.966Z,91.53
2018-12-13T04:55:49.775Z,91.53
2018-12-13T04:56:49.312Z,91.43
2018-12-13T04:57:50.655Z,91.91
2018-12-13T04:58:50.018Z,92.10
2018-12-13T04:59:49.718Z,92.00
2018-12-13T05:01:04.693Z,91.34
2018-12-13T05:02:03.621Z,91.15
2018-12-13T05:02:51.285Z,91.91
2018-12-13T05:03:51.379Z,92.29
2018-12-13T05:04:56.925Z,92.00
2018-12-13T05:07:58.570Z,91.53
2018-12-13T05:08:58.273Z,92.00
2018-12-13T05:12:29.407Z,91.34
2018-12-13T05:13:22.269Z,92.19
2018-12-13T05:14:21.947Z,91.91
2018-12-13T05:15:25.175Z,91.15
2018-12-13T05:21:46.640Z,92.94
2018-12-13T05:22:46.957Z,91.62
2018-12-13T05:23:48.770Z,91.43
2018-12-13T05:24:50.115Z,91.53
2018-12-13T05:25:50.137Z,91.43
2018-12-13T05:26:51.091Z,91.34
2018-12-13T05:28:14.086Z,90.96
2018-12-13T05:28:51.128Z,90.67
2018-12-13T05:29:49.318Z,90.58
2018-12-13T05:30:59.195Z,90.01
2018-12-13T05:31:48.766Z,90.01
2018-12-13T05:32:47.950Z,90.20
2018-12-13T05:33:51.310Z,90.30
2018-12-13T05:34:52.750Z,90.77
2018-12-13T05:35:47.738Z,91.24
2018-12-13T05:36:47.417Z,91.24
2018-12-13T05:37:48.336Z,91.43
2018-12-13T05:38:46.778Z,91.05
2018-12-13T05:39:48.618Z,91.34
2018-12-13T05:40:47.371Z,91.43
2018-12-13T05:41:47.068Z,91.43
2018-12-13T05:42:47.455Z,91.24
2018-12-13T05:43:47.244Z,91.53
2018-12-13T05:44:47.208Z,91.34
2018-12-13T05:45:47.343Z,90.96
2018-12-13T05:46:47.424Z,90.48
2018-12-13T05:47:48.276Z,89.92
2018-12-13T05:48:47.939Z,90.20
2018-12-13T05:49:48.447Z,90.67
2018-12-13T05:51:48.194Z,91.34
2018-12-13T05:52:48.504Z,90.58
2018-12-13T05:53:48.690Z,90.58
2018-12-13T05:54:48.885Z,91.43
2018-12-13T05:55:49.522Z,91.29
2018-12-13T05:56:49.251Z,91.10
2018-12-13T05:57:49.463Z,90.53
2018-12-13T05:58:49.848Z,89.87
2018-12-13T05:59:49.803Z,90.39
2018-12-13T06:00:49.888Z,90.34
2018-12-13T06:01:50.383Z,90.39
2018-12-13T06:02:51.105Z,91.10
2018-12-13T06:03:50.452Z,90.82
2018-12-13T06:04:53.499Z,91.48
2018-12-13T06:05:50.764Z,91.53
2018-12-13T06:06:52.724Z,90.72
2018-12-13T06:07:54.827Z,90.34
2018-12-13T06:08:50.915Z,90.44
2018-12-13T06:09:50.849Z,90.82
2018-12-13T06:10:52.348Z,90.06
2018-12-13T06:11:51.601Z,90.34
2018-12-13T06:13:04.348Z,90.63
2018-12-13T06:13:55.475Z,90.34
2018-12-13T06:14:56.977Z,89.97
2018-12-13T06:15:55.030Z,90.34
2018-12-13T06:16:54.891Z,91.10
2018-12-13T06:17:54.755Z,91.10
2018-12-13T06:18:52.260Z,91.01
2018-12-13T06:19:52.412Z,91.01
2018-12-13T06:20:53.253Z,91.39
2018-12-13T06:21:52.799Z,91.29
2018-12-13T06:22:52.851Z,91.10
2018-12-13T06:23:53.498Z,90.91
2018-12-13T06:24:53.467Z,91.01
2018-12-13T06:25:53.401Z,91.67
2018-12-13T06:26:53.956Z,91.29
2018-12-13T06:27:53.761Z,91.48
2018-12-13T06:28:54.115Z,91.10
2018-12-13T06:29:58.895Z,91.10
2018-12-13T06:30:54.456Z,91.58
2018-12-13T06:31:54.398Z,90.96
2018-12-13T06:32:54.854Z,91.15
2018-12-13T06:33:55.199Z,90.77
2018-12-13T06:34:54.976Z,91.10
2018-12-13T06:35:55.314Z,90.86
2018-12-13T06:36:55.533Z,91.15
2018-12-13T06:38:01.072Z,90.86
2018-12-13T06:38:55.786Z,90.96
2018-12-13T06:39:55.808Z,90.96
2018-12-13T06:40:55.954Z,90.86
2018-12-13T06:41:56.403Z,90.34
2018-12-13T06:42:56.456Z,91.10
2018-12-13T06:43:56.727Z,91.15
2018-12-13T06:44:57.177Z,91.05
2018-12-13T06:45:57.184Z,90.39
2018-12-13T06:46:57.038Z,90.48
2018-12-13T06:47:57.253Z,90.96
2018-12-13T06:48:57.591Z,90.96
2018-12-13T06:49:57.666Z,90.48
2018-12-13T06:50:57.906Z,90.86
2018-12-13T06:51:58.077Z,91.43
2018-12-13T06:52:58.230Z,90.86
2018-12-13T06:53:58.370Z,90.77
2018-12-13T06:54:58.742Z,90.58
2018-12-13T06:55:58.899Z,91.53
2018-12-13T06:56:58.882Z,91.43
2018-12-13T06:57:59.028Z,91.20
2018-12-13T06:58:59.526Z,90.72
2018-12-13T06:59:59.342Z,90.58
2018-12-13T07:00:59.623Z,90.06
2018-12-13T07:01:59.717Z,90.01
2018-12-13T07:02:59.959Z,89.73
2018-12-13T07:04:00.034Z,89.54
2018-12-13T07:05:00.633Z,89.59
2018-12-13T07:06:00.661Z,89.50
2018-12-13T07:07:00.418Z,89.78
2018-12-13T07:08:07.530Z,90.44
2018-12-13T07:10:43.624Z,89.40
2018-12-13T07:11:44.143Z,89.12
2018-12-13T07:12:44.197Z,89.21
2018-12-13T07:13:44.500Z,89.50
2018-12-13T07:14:44.680Z,89.69
2018-12-13T07:15:45.972Z,89.40
2018-12-13T07:16:44.990Z,89.78
2018-12-13T07:17:45.362Z,90.25
2018-12-13T07:18:45.621Z,90.06
2018-12-13T07:19:45.297Z,90.63
2018-12-13T07:20:46.316Z,91.01
2018-12-13T07:21:45.563Z,91.48
2018-12-13T07:22:43.707Z,91.20
2018-12-13T07:23:43.876Z,91.67
2018-12-13T07:24:44.208Z,91.58
2018-12-13T07:25:44.286Z,90.91
2018-12-13T07:26:44.371Z,91.10
2018-12-13T07:27:44.406Z,91.29
2018-12-13T07:28:45.086Z,90.82
2018-12-13T07:29:44.759Z,90.91
2018-12-13T07:30:45.663Z,90.82
2018-12-13T07:31:57.772Z,91.01
2018-12-13T07:34:31.782Z,91.10
2018-12-13T07:35:32.093Z,90.82
2018-12-13T07:36:33.154Z,91.20
2018-12-13T07:37:32.256Z,91.39
2018-12-13T07:38:32.114Z,91.29
2018-12-13T07:39:31.096Z,91.01
2018-12-13T07:40:30.870Z,92.05
2018-12-13T07:41:30.953Z,91.86
2018-12-13T07:42:31.122Z,92.33
2018-12-13T07:43:31.123Z,91.67
2018-12-13T07:44:31.516Z,91.96
2018-12-13T07:45:31.316Z,91.29
2018-12-13T07:46:31.739Z,91.39
2018-12-13T07:47:31.910Z,91.01
2018-12-13T07:48:31.698Z,90.91
2018-12-13T07:49:31.850Z,91.34
2018-12-13T07:50:32.103Z,91.24
2018-12-13T07:51:33.151Z,90.96
2018-12-13T07:52:32.490Z,89.82
2018-12-13T07:53:33.018Z,89.54
2018-12-13T07:56:42.539Z,87.88
2018-12-13T07:57:43.990Z,87.74
2018-12-13T07:58:42.031Z,86.89
2018-12-13T07:59:42.174Z,87.55
2018-12-13T08:00:42.294Z,88.12
2018-12-13T08:01:42.422Z,87.65
2018-12-13T08:02:42.590Z,87.69
2018-12-13T08:03:42.833Z,88.26
2018-12-13T08:04:43.582Z,88.45
2018-12-13T08:05:43.118Z,87.50
2018-12-13T08:06:43.404Z,87.69
2018-12-13T08:07:43.661Z,87.02
2018-12-13T08:08:44.122Z,86.27
2018-12-13T08:09:44.041Z,85.70
2018-12-13T08:10:44.278Z,84.80
2018-12-13T08:11:44.133Z,84.13
2018-12-13T08:12:44.389Z,84.51
2018-12-13T08:13:44.470Z,84.42
2018-12-13T08:14:44.388Z,84.61
2018-12-13T08:15:45.088Z,84.42
2018-12-13T08:16:44.964Z,83.75
2018-12-13T08:17:46.571Z,84.04
2018-12-13T08:18:45.767Z,83.66
2018-12-13T08:19:46.081Z,83.00
2018-12-13T08:20:45.433Z,83.47
2018-12-13T08:21:45.470Z,83.00
2018-12-13T08:22:45.781Z,82.94
2018-12-13T08:23:46.730Z,82.18
2018-12-13T08:24:46.048Z,81.62
2018-12-13T08:25:46.333Z,81.33
2018-12-13T08:26:46.758Z,80.38
2018-12-13T08:27:46.576Z,80.38
2018-12-13T08:28:47.123Z,79.25
2018-12-13T08:29:47.221Z,79.72
2018-12-13T08:30:47.307Z,79.28
2018-12-13T08:31:47.097Z,77.96
2018-12-13T08:33:47.469Z,76.54
2018-12-13T08:34:48.083Z,76.44
2018-12-13T08:35:47.916Z,76.73
2018-12-13T08:36:48.059Z,78.05
2018-12-13T08:37:48.161Z,77.11
2018-12-13T08:38:48.365Z,77.48
2018-12-13T08:39:48.460Z,77.20
2018-12-13T08:40:48.661Z,76.73
2018-12-13T08:41:48.827Z,76.54
2018-12-13T08:42:49.016Z,76.82
2018-12-13T08:43:49.167Z,76.73
2018-12-13T08:44:49.255Z,76.54
2018-12-13T08:45:49.513Z,77.11
2018-12-13T08:46:49.628Z,77.20
2018-12-13T08:47:49.823Z,77.48
2018-12-13T08:48:49.998Z,77.48
2018-12-13T08:49:50.131Z,77.58
2018-12-13T08:50:50.287Z,78.77
2018-12-13T08:51:50.455Z,78.77
2018-12-13T08:52:50.633Z,79.15
2018-12-13T08:53:50.779Z,79.06
2018-12-13T08:54:50.919Z,79.44
2018-12-13T08:55:51.030Z,79.15
2018-12-13T08:56:51.155Z,79.34
2018-12-13T08:57:51.367Z,79.34
2018-12-13T08:58:51.516Z,78.77
2018-12-13T08:59:51.730Z,78.67
2018-12-13T09:00:51.854Z,78.67
2018-12-13T09:01:52.868Z,78.67
2018-12-13T09:02:52.191Z,77.96
2018-12-13T09:03:52.429Z,78.24
2018-12-13T09:04:52.603Z,77.58
2018-12-13T09:05:52.847Z,76.67
2018-12-13T09:06:53.070Z,75.15
2018-12-13T09:07:53.111Z,74.87
2018-12-13T09:08:53.363Z,74.77
2018-12-13T09:09:53.472Z,75.05
2018-12-13T09:10:53.676Z,74.87
2018-12-13T09:11:53.813Z,74.87
2018-12-13T09:12:53.960Z,74.58
2018-12-13T09:13:54.104Z,74.77
2018-12-13T09:14:54.220Z,74.73
2018-12-13T09:15:54.431Z,74.83
2018-12-13T09:16:54.567Z,74.96
2018-12-13T09:17:54.790Z,74.87
2018-12-13T09:18:54.853Z,74.87
2018-12-13T09:19:54.956Z,74.49
2018-12-13T09:20:55.180Z,73.72
2018-12-13T09:21:55.319Z,74.11
2018-12-13T09:22:55.404Z,73.07
2018-12-13T09:23:55.692Z,73.82
2018-12-13T09:24:55.833Z,75.62
2018-12-13T09:25:55.999Z,75.72
2018-12-13T09:26:56.056Z,74.68
2018-12-13T09:27:56.342Z,74.87
2018-12-13T09:28:56.463Z,74.49
2018-12-13T09:29:56.593Z,73.86
2018-12-13T09:30:56.837Z,73.67
2018-12-13T09:31:56.997Z,72.72
2018-12-13T09:32:57.119Z,71.01
2018-12-13T09:33:57.314Z,71.23
2018-12-13T09:34:57.600Z,70.67
2018-12-13T09:35:57.706Z,69.43
2018-12-13T09:36:57.954Z,69.05
2018-12-13T09:37:57.975Z,69.18
2018-12-13T09:38:58.242Z,68.71
2018-12-13T09:39:58.341Z,68.13
2018-12-13T09:40:58.571Z,67.38
2018-12-13T09:41:58.671Z,67.38
2018-12-13T09:42:58.890Z,67.76
2018-12-13T09:43:59.080Z,67.41
2018-12-13T09:44:59.168Z,67.38
2018-12-13T09:45:59.397Z,67.09
2018-12-13T09:46:59.541Z,67.13
2018-12-13T09:47:59.760Z,66.74
2018-12-13T09:48:59.948Z,66.17
2018-12-13T09:50:00.015Z,66.20
2018-12-13T09:51:00.211Z,65.67
2018-12-13T09:52:00.408Z,63.26
2018-12-13T09:53:00.530Z,62.69
2018-12-13T09:54:00.721Z,62.62
2018-12-13T09:55:05.651Z,62.46
2018-12-13T09:56:00.963Z,61.42
2018-12-13T09:57:01.232Z,59.80
2018-12-13T09:58:01.401Z,59.35
2018-12-13T09:59:01.494Z,58.78
2018-12-13T10:00:01.659Z,58.59
2018-12-13T10:01:01.892Z,57.82
2018-12-13T10:02:02.147Z,58.02
2018-12-13T10:03:02.234Z,58.30
2018-12-13T10:04:02.441Z,58.94
2018-12-13T10:05:02.628Z,59.42
2018-12-13T10:06:02.733Z,59.70
2018-12-13T10:07:02.980Z,59.42
2018-12-13T10:08:03.132Z,58.75
2018-12-13T10:09:03.298Z,59.45
2018-12-13T10:10:03.436Z,58.30
2018-12-13T10:11:03.570Z,57.64
2018-12-13T10:12:03.726Z,56.90
2018-12-13T10:13:03.897Z,56.33
2018-12-13T10:14:04.073Z,57.28
2018-12-13T10:15:04.326Z,57.22
2018-12-13T10:16:04.484Z,56.26
2018-12-13T10:17:04.572Z,55.50
2018-12-13T10:18:04.756Z,55.02
2018-12-13T10:19:04.927Z,54.64
2018-12-13T10:20:05.140Z,54.48
2018-12-13T10:21:05.251Z,53.62
2018-12-13T10:22:11.480Z,53.59
2018-12-13T10:23:05.719Z,53.21
2018-12-13T10:24:05.797Z,53.50
2018-12-13T10:25:05.958Z,53.50
2018-12-13T10:26:06.358Z,53.50
2018-12-13T10:27:06.401Z,53.88
2018-12-13T10:28:06.565Z,53.50
2018-12-13T10:29:06.782Z,53.09
2018-12-13T10:30:06.816Z,53.00
2018-12-13T10:31:07.080Z,53.31
2018-12-13T10:32:07.132Z,52.95
2018-12-13T10:33:07.374Z,52.76
2018-12-13T10:34:07.415Z,53.05
2018-12-13T10:35:11.380Z,53.91
2018-12-13T10:36:07.876Z,53.53
2018-12-13T10:37:08.087Z,53.45
2018-12-13T10:38:08.178Z,53.45
2018-12-13T10:39:08.408Z,53.00
2018-12-13T10:40:08.468Z,52.59
2018-12-13T10:41:08.657Z,50.71
2018-12-13T10:42:08.905Z,50.49
2018-12-13T10:43:09.117Z,49.85
2018-12-13T10:44:09.237Z,50.84
2018-12-13T10:45:09.435Z,51.60
2018-12-13T10:46:09.672Z,50.81
2018-12-13T10:47:09.761Z,51.00
2018-12-13T10:48:09.909Z,51.35
2018-12-13T10:49:10.087Z,51.54
2018-12-13T10:50:10.236Z,51.23
2018-12-13T10:51:10.441Z,52.86
2018-12-13T10:52:10.562Z,52.76
2018-12-13T10:53:10.821Z,53.43
2018-12-13T10:54:10.911Z,52.88
2018-12-13T10:55:11.124Z,51.86
2018-12-13T10:56:11.897Z,50.02
2018-12-13T10:57:11.482Z,50.33
2018-12-13T10:58:11.557Z,50.14
2018-12-13T10:59:11.778Z,50.04
2018-12-13T11:00:12.036Z,51.76
2018-12-13T11:01:12.207Z,51.38
2018-12-13T11:02:12.367Z,50.84
2018-12-13T11:03:12.534Z,50.98
2018-12-13T11:04:12.689Z,49.52
2018-12-13T11:05:12.864Z,50.49
2018-12-13T11:06:12.991Z,51.52
2018-12-13T11:07:13.172Z,51.31
2018-12-13T11:08:13.347Z,51.62
2018-12-13T11:09:13.508Z,51.81
2018-12-13T11:10:14.436Z,52.92
2018-12-13T11:11:13.898Z,53.38
2018-12-13T11:12:14.320Z,53.54
2018-12-13T11:13:14.237Z,54.30
2018-12-13T11:14:14.469Z,55.83
2018-12-13T11:15:14.796Z,57.64
2018-12-13T11:16:15.032Z,57.70
2018-12-13T11:17:15.174Z,58.59
2018-12-13T11:22:43.282Z,62.56
2018-12-13T11:23:35.380Z,63.48
2018-12-13T11:24:33.683Z,64.05
2018-12-13T11:25:38.488Z,64.46
2018-12-13T11:26:34.507Z,63.99
2018-12-13T11:27:34.092Z,64.37
2018-12-13T11:28:34.525Z,65.86
2018-12-13T11:29:34.654Z,66.14
2018-12-13T11:32:08.672Z,67.69
2018-12-13T11:33:08.076Z,69.68
2018-12-13T11:34:08.695Z,70.19
2018-12-13T11:35:08.569Z,68.77
2018-12-13T11:36:08.653Z,69.24
2018-12-13T11:37:09.359Z,69.37
2018-12-13T11:38:09.423Z,68.55
2018-12-13T11:39:11.025Z,66.05
2018-12-13T11:40:09.482Z,66.39
2018-12-13T11:41:09.703Z,64.90
2018-12-13T11:42:09.683Z,62.85
2018-12-13T11:43:10.001Z,60.59
2018-12-13T11:44:10.056Z,59.48
2018-12-13T11:45:10.353Z,58.69
2018-12-13T11:46:10.496Z,58.28
2018-12-13T11:47:10.707Z,58.21
2018-12-13T11:48:10.814Z,58.84
2018-12-13T11:49:12.297Z,59.67
2018-12-13T11:50:11.154Z,60.63
2018-12-13T11:51:11.258Z,60.63
2018-12-13T11:52:11.480Z,60.60
2018-12-13T11:53:11.676Z,62.56
2018-12-13T11:54:11.805Z,64.18
2018-12-13T11:55:11.959Z,64.08
2018-12-13T11:56:12.169Z,63.26
2018-12-13T11:57:12.289Z,62.43
2018-12-13T11:58:12.444Z,61.64
2018-12-13T11:59:12.646Z,62.40
2018-12-13T12:00:12.769Z,62.75
2018-12-13T12:01:12.974Z,63.39
2018-12-13T12:02:13.138Z,64.34
2018-12-13T12:03:13.309Z,65.67
2018-12-13T12:04:13.508Z,65.57
2018-12-13T12:05:13.688Z,65.86
2018-12-13T12:06:13.799Z,64.90
2018-12-13T12:07:14.238Z,66.05
2018-12-13T12:08:14.499Z,66.33
2018-12-13T12:09:14.431Z,67.25
2018-12-13T12:10:14.465Z,67.79
2018-12-13T12:11:14.561Z,68.92
2018-12-13T12:12:14.778Z,69.30
2018-12-13T12:13:14.985Z,70.69
2018-12-13T12:14:15.126Z,71.55
2018-12-13T12:15:15.277Z,72.55
2018-12-13T12:16:15.392Z,73.31
2018-12-13T12:17:15.637Z,74.35
2018-12-13T12:18:15.726Z,74.45
2018-12-13T12:19:15.956Z,74.92
2018-12-13T12:20:16.125Z,75.11
2018-12-13T12:21:16.742Z,76.34
2018-12-13T12:24:04.833Z,76.40
2018-12-13T12:25:08.173Z,78.39
2018-12-13T12:27:58.985Z,80.19
2018-12-13T12:28:58.728Z,80.95
2018-12-13T12:30:25.399Z,80.25
2018-12-13T12:31:06.363Z,80.15
2018-12-13T12:31:58.173Z,79.72
2018-12-13T12:32:58.198Z,80.82
2018-12-13T12:34:56.085Z,79.77
2018-12-13T12:35:56.184Z,79.96
2018-12-13T12:36:56.478Z,80.25
2018-12-13T12:37:56.520Z,79.96
2018-12-13T12:38:56.747Z,81.33
2018-12-13T12:39:57.031Z,80.90
2018-12-13T12:40:56.972Z,80.24
2018-12-13T12:41:57.449Z,78.43
2018-12-13T12:42:57.617Z,77.96
2018-12-13T12:43:57.850Z,78.43
2018-12-13T12:45:02.002Z,78.58
2018-12-13T12:45:57.933Z,78.87
2018-12-13T12:46:59.648Z,79.53
2018-12-13T12:47:58.411Z,80.19
2018-12-13T12:48:58.604Z,80.52
2018-12-13T12:49:58.748Z,79.10
2018-12-13T12:50:59.109Z,78.09
2018-12-13T12:51:58.927Z,76.52
2018-12-13T12:52:59.300Z,73.96
2018-12-13T12:53:59.505Z,72.66
2018-12-13T12:54:59.449Z,72.09
2018-12-13T12:55:59.780Z,71.27
2018-12-13T12:56:59.863Z,70.93
2018-12-13T12:58:00.024Z,69.31
2018-12-13T12:59:00.261Z,67.79
2018-12-13T13:00:00.341Z,67.44
2018-12-13T13:01:00.671Z,67.54
2018-12-13T13:02:01.027Z,65.35
2018-12-13T13:03:01.586Z,64.78
2018-12-13T13:04:01.666Z,66.27
2018-12-13T13:05:02.264Z,66.20
2018-12-13T13:06:01.942Z,66.02
2018-12-13T13:07:02.115Z,66.52
2018-12-13T13:08:03.401Z,67.00
2018-12-13T13:09:02.075Z,66.71
2018-12-13T13:10:02.277Z,66.52
2018-12-13T13:11:02.541Z,65.99
2018-12-13T13:12:02.685Z,65.22
2018-12-13T13:13:02.686Z,65.57
2018-12-13T13:14:03.255Z,66.67
2018-12-13T13:15:03.640Z,68.10
2018-12-13T13:16:03.404Z,69.49
2018-12-13T13:17:03.522Z,70.50
2018-12-13T13:18:04.010Z,71.73
2018-12-13T13:19:04.181Z,72.59
2018-12-13T13:20:04.113Z,73.16
2018-12-13T13:21:04.415Z,73.63
2018-12-13T13:22:04.812Z,75.11
2018-12-13T13:23:04.723Z,74.73
2018-12-13T13:24:05.096Z,75.21
2018-12-13T13:25:07.352Z,75.87
2018-12-13T13:26:06.732Z,76.78
2018-12-13T13:27:05.443Z,76.68
2018-12-13T13:32:01.903Z,79.87
2018-12-13T13:33:03.328Z,79.44
2018-12-13T13:37:49.414Z,80.44
2018-12-13T13:38:45.065Z,80.44
2018-12-13T13:39:47.610Z,80.72
2018-12-13T13:40:42.254Z,81.20
2018-12-13T13:41:39.362Z,81.95
2018-12-13T13:42:42.212Z,81.38
2018-12-13T13:43:41.934Z,81.29
2018-12-13T13:44:37.609Z,80.63
2018-12-13T13:45:38.651Z,81.29
2018-12-13T13:46:37.490Z,81.76
2018-12-13T13:47:37.842Z,81.86
2018-12-13T13:48:45.527Z,81.95
2018-12-13T13:49:37.822Z,82.62
2018-12-13T13:50:36.193Z,82.90
2018-12-13T13:51:37.354Z,83.85
2018-12-13T13:52:36.722Z,83.85
2018-12-13T13:53:36.515Z,82.90
2018-12-13T13:54:36.464Z,84.13
2018-12-13T13:55:41.338Z,83.43
2018-12-13T13:56:36.885Z,84.13
2018-12-13T13:57:50.400Z,83.24
2018-12-13T13:58:38.021Z,83.24
2018-12-13T13:59:37.521Z,83.05
2018-12-13T14:00:38.439Z,82.76
2018-12-13T14:01:38.402Z,83.05
2018-12-13T14:02:38.082Z,83.33
2018-12-13T14:03:38.619Z,83.33
2018-12-13T14:06:44.334Z,83.43
2018-12-13T14:07:46.920Z,83.05
2018-12-13T14:27:24.011Z,83.81
2018-12-13T14:28:23.714Z,85.23
2018-12-13T14:29:23.680Z,85.23
2018-12-13T14:30:26.010Z,85.89
2018-12-13T14:31:24.540Z,85.04
2018-12-13T14:32:24.856Z,84.94
2018-12-13T14:33:26.669Z,84.85
2018-12-13T14:34:26.921Z,85.04
2018-12-13T14:35:26.490Z,84.66
2018-12-13T14:36:25.079Z,84.94
2018-12-13T14:37:25.128Z,85.42
2018-12-13T14:38:32.396Z,85.04
2018-12-13T14:39:44.149Z,85.13
2018-12-13T14:40:26.681Z,85.42
2018-12-13T14:41:25.785Z,84.85
2018-12-13T14:42:27.129Z,85.13
2018-12-13T14:43:27.790Z,85.32
2018-12-13T14:44:27.675Z,86.36
2018-12-13T14:45:27.367Z,86.74
2018-12-13T14:46:26.984Z,86.55
2018-12-13T14:47:27.626Z,86.83
2018-12-13T14:48:27.316Z,86.46
2018-12-13T14:49:25.491Z,86.36
2018-12-13T14:50:25.616Z,86.36
2018-12-13T14:51:25.523Z,86.36
2018-12-13T14:52:26.045Z,86.36
2018-12-13T14:53:27.008Z,86.55
2018-12-13T14:54:26.235Z,86.36
2018-12-13T14:55:26.158Z,86.55
2018-12-13T14:56:26.397Z,86.46
2018-12-13T14:57:26.164Z,86.93
2018-12-13T14:58:26.666Z,86.74
2018-12-13T14:59:27.531Z,86.74
2018-12-13T15:00:27.252Z,87.12
2018-12-13T15:01:29.539Z,87.17
2018-12-13T15:02:27.491Z,87.27
2018-12-13T15:03:27.166Z,87.65
2018-12-13T15:04:28.017Z,86.70
2018-12-13T15:05:27.722Z,86.70
2018-12-13T15:11:56.695Z,87.46
2018-12-13T15:12:36.523Z,87.65
2018-12-13T15:13:36.800Z,88.12
2018-12-13T15:34:22.249Z,90.01
2018-12-13T15:35:26.251Z,90.01
2018-12-13T15:37:22.815Z,90.20
2018-12-13T15:38:22.568Z,89.82
2018-12-13T15:44:19.018Z,89.06
2018-12-13T15:45:19.350Z,89.06
2018-12-13T15:46:20.895Z,89.06
2018-12-13T15:49:37.086Z,88.59
2018-12-13T15:50:38.452Z,88.78
2018-12-13T15:54:42.922Z,89.44
2018-12-13T15:55:19.357Z,89.82
2018-12-13T15:56:18.620Z,89.25
2018-12-13T15:57:19.568Z,88.68
2018-12-13T15:58:17.763Z,88.68
2018-12-13T15:59:20.620Z,88.97
2018-12-13T16:03:10.263Z,88.31
2018-12-13T16:04:10.861Z,88.59
2018-12-13T16:05:11.430Z,88.12
2018-12-13T16:06:26.335Z,88.78
2018-12-13T16:07:10.419Z,89.16
2018-12-13T16:08:13.212Z,89.44
2018-12-13T16:11:29.980Z,88.87
2018-12-13T16:14:09.190Z,88.49
2018-12-13T16:15:10.397Z,88.87
2018-12-13T16:16:13.887Z,88.68
2018-12-13T16:17:23.746Z,88.97
2018-12-13T16:18:10.695Z,88.59
2018-12-13T16:19:13.609Z,88.97
2018-12-13T16:20:24.075Z,88.97
2018-12-13T16:21:12.961Z,88.78
2018-12-13T16:22:11.594Z,88.78
2018-12-13T16:23:14.349Z,89.35
2018-12-13T16:24:14.118Z,89.21
2018-12-13T16:25:13.103Z,89.06
2018-12-13T16:26:11.666Z,90.20
2018-12-13T16:27:14.758Z,89.78
2018-12-13T16:28:11.735Z,89.59
2018-12-13T16:29:12.445Z,89.78
2018-12-13T16:30:12.912Z,90.06
2018-12-13T16:31:12.434Z,90.25
2018-12-13T16:32:12.506Z,89.97
2018-12-13T16:35:40.188Z,90.72
2018-12-13T16:36:41.859Z,90.44
2018-12-13T16:50:38.649Z,89.69
2018-12-13T17:06:56.382Z,88.45
2018-12-13T17:07:58.808Z,88.83
2018-12-13T17:08:57.976Z,88.64
2018-12-13T17:09:56.295Z,88.74
2018-12-13T17:10:56.522Z,88.83
2018-12-13T17:11:56.625Z,88.83
2018-12-13T17:12:56.902Z,89.12
2018-12-13T17:13:57.176Z,88.07
2018-12-13T17:14:57.795Z,88.36
2018-12-13T17:15:57.341Z,88.07
2018-12-13T17:16:57.516Z,87.51
2018-12-13T17:17:57.808Z,87.98
2018-12-13T17:18:58.027Z,88.17
2018-12-13T17:19:58.026Z,87.41
2018-12-13T17:20:58.191Z,87.98
2018-12-13T17:21:58.346Z,88.26
2018-12-13T17:22:58.466Z,88.68
2018-12-13T17:23:58.758Z,87.93
2018-12-13T17:24:58.904Z,88.40
2018-12-13T17:25:58.973Z,87.93
2018-12-13T17:26:59.175Z,88.31
2018-12-13T17:27:59.308Z,88.31
2018-12-13T17:29:00.143Z,87.74
2018-12-13T17:30:00.107Z,88.12
2018-12-13T17:30:59.864Z,88.40
2018-12-13T17:32:00.004Z,88.02
2018-12-13T17:33:00.196Z,88.40
2018-12-13T17:34:00.491Z,88.49
2018-12-13T17:35:00.507Z,88.21
2018-12-13T17:36:00.712Z,88.31
2018-12-13T17:37:00.948Z,88.31
2018-12-13T17:38:01.342Z,87.93
2018-12-13T17:39:01.376Z,88.31
2018-12-13T17:40:01.458Z,87.93
2018-12-13T17:41:02.217Z,87.84
2018-12-13T17:42:01.867Z,87.74
2018-12-13T17:43:01.992Z,87.84
2018-12-13T17:44:01.972Z,87.93
2018-12-13T17:45:02.368Z,88.31
2018-12-13T17:46:02.322Z,88.02
2018-12-13T17:47:02.463Z,87.93
2018-12-13T17:48:02.714Z,87.93
2018-12-13T17:49:02.854Z,88.02
2018-12-13T17:50:03.040Z,87.74
2018-12-13T17:51:03.419Z,88.12
2018-12-13T17:52:03.352Z,87.74
2018-12-13T17:53:03.519Z,87.74
2018-12-13T17:54:03.684Z,87.93
2018-12-13T17:55:03.960Z,87.93
2018-12-13T17:56:03.969Z,87.08
2018-12-13T17:57:04.208Z,87.55
2018-12-13T17:58:04.295Z,87.93
2018-12-13T17:59:04.676Z,87.84
2018-12-13T18:00:04.762Z,87.46
2018-12-13T18:01:04.903Z,88.02
2018-12-13T18:02:05.212Z,87.46
2018-12-13T18:03:05.175Z,88.02
2018-12-13T18:04:05.795Z,87.98
2018-12-13T18:05:05.765Z,87.88
2018-12-13T18:06:05.996Z,88.36
2018-12-13T18:07:06.338Z,88.36
2018-12-13T18:08:06.324Z,88.07
2018-12-13T18:09:06.477Z,88.26
2018-12-13T18:10:06.594Z,88.17
2018-12-13T18:11:06.754Z,88.83
2018-12-13T18:12:06.867Z,89.12
2018-12-13T18:13:07.065Z,88.93
2018-12-13T18:14:07.525Z,88.26
2018-12-13T18:15:07.625Z,88.07
2018-12-13T18:16:07.845Z,88.07
2018-12-13T18:17:07.926Z,88.74
2018-12-13T18:18:07.918Z,89.12
2018-12-13T18:19:08.086Z,88.07
2018-12-13T18:20:08.484Z,88.64
2018-12-13T18:21:08.447Z,88.64
2018-12-13T18:22:08.619Z,88.83
2018-12-13T18:23:08.727Z,88.83
2018-12-13T18:24:09.426Z,88.83
2018-12-13T18:25:09.131Z,88.83
2018-12-13T18:26:09.302Z,88.74
2018-12-13T18:27:09.502Z,89.02
2018-12-13T18:28:09.607Z,88.83
2018-12-13T18:29:09.773Z,88.74
2018-12-13T18:30:10.072Z,88.93
2018-12-13T18:31:10.251Z,88.83
2018-12-13T18:32:10.448Z,88.64
2018-12-13T18:33:10.667Z,88.83
2018-12-13T18:34:10.769Z,88.64
2018-12-13T18:35:11.032Z,88.93
2018-12-13T18:36:11.021Z,89.02
2018-12-13T18:37:11.089Z,88.74
2018-12-13T18:38:11.332Z,88.93
2018-12-13T18:39:11.589Z,88.83
2018-12-13T18:40:11.814Z,88.74
2018-12-13T18:41:11.819Z,88.83
2018-12-13T18:42:12.736Z,88.64
2018-12-13T18:43:12.414Z,89.21
2018-12-13T18:44:12.411Z,89.02
2018-12-13T18:45:12.557Z,89.40
2018-12-13T18:46:12.505Z,88.93
2018-12-13T18:47:12.806Z,89.02
2018-12-13T18:48:12.972Z,89.02
2018-12-13T18:49:13.213Z,89.21
2018-12-13T18:50:13.244Z,88.83
2018-12-13T18:51:13.734Z,88.93
2018-12-13T18:52:14.206Z,89.78
2018-12-13T18:53:14.186Z,89.50
2018-12-13T18:54:14.455Z,89.78
2018-12-13T18:55:14.571Z,89.50
2018-12-13T18:56:14.447Z,88.74
2018-12-13T18:57:14.716Z,89.50
2018-12-13T18:58:15.152Z,89.78
2018-12-13T18:59:14.956Z,89.50
2018-12-13T19:00:15.309Z,89.40
2018-12-13T19:01:15.297Z,89.69
2018-12-13T19:02:15.297Z,89.59
2018-12-13T19:03:15.605Z,89.87
2018-12-13T19:04:15.895Z,88.93
2018-12-13T19:05:15.971Z,89.02
2018-12-13T19:06:16.357Z,89.78
2018-12-13T19:07:16.489Z,89.12
2018-12-13T19:08:16.700Z,88.74
2018-12-13T19:09:16.825Z,89.69
2018-12-13T19:10:16.758Z,89.40
2018-12-13T19:12:17.233Z,89.21
2018-12-13T19:13:17.390Z,89.40
2018-12-13T19:14:17.567Z,89.31